sensor_id;sensor_type;location;lat;lon;timestamp;P1;durP1;ratioP1;P2;durP2;ratioP2
36001;SDS011;22070;50.922;5.430;2024-01-11T00:00:58;29.37;;;9.37;;
36001;SDS011;22070;50.922;5.430;2024-01-11T00:03:24;30.13;;;9.73;;
36001;SDS011;22070;50.922;5.430;2024-01-11T00:05:50;18.43;;;6.73;;
36001;SDS011;22070;50.922;5.430;2024-01-11T00:08:16;25.55;;;8.30;;
36001;SDS011;22070;50.922;5.430;2024-01-11T00:10:41;33.33;;;8.97;;
36001;SDS011;22070;50.922;5.430;2024-01-11T00:13:07;24.87;;;8.87;;
36001;SDS011;22070;50.922;5.430;2024-01-11T00:15:33;30.03;;;8.93;;
36001;SDS011;22070;50.922;5.430;2024-01-11T00:17:58;32.30;;;9.53;;
36001;SDS011;22070;50.922;5.430;2024-01-11T00:20:24;27.87;;;9.27;;
36001;SDS011;22070;50.922;5.430;2024-01-11T00:22:49;24.63;;;8.63;;
36001;SDS011;22070;50.922;5.430;2024-01-11T00:25:15;25.47;;;8.13;;
36001;SDS011;22070;50.922;5.430;2024-01-11T00:27:41;28.23;;;9.33;;
36001;SDS011;22070;50.922;5.430;2024-01-11T00:30:06;27.07;;;8.67;;
36001;SDS011;22070;50.922;5.430;2024-01-11T00:32:32;25.33;;;8.73;;
36001;SDS011;22070;50.922;5.430;2024-01-11T00:34:58;25.20;;;8.63;;
36001;SDS011;22070;50.922;5.430;2024-01-11T00:37:24;28.33;;;8.53;;
36001;SDS011;22070;50.922;5.430;2024-01-11T00:39:50;23.95;;;8.18;;
36001;SDS011;22070;50.922;5.430;2024-01-11T00:42:15;21.30;;;8.07;;
36001;SDS011;22070;50.922;5.430;2024-01-11T00:44:41;24.90;;;8.27;;
36001;SDS011;22070;50.922;5.430;2024-01-11T00:47:07;28.63;;;8.23;;
36001;SDS011;22070;50.922;5.430;2024-01-11T00:49:32;32.27;;;9.57;;
36001;SDS011;22070;50.922;5.430;2024-01-11T00:51:58;25.77;;;8.00;;
36001;SDS011;22070;50.922;5.430;2024-01-11T00:54:24;28.40;;;8.10;;
36001;SDS011;22070;50.922;5.430;2024-01-11T00:56:50;31.30;;;8.90;;
36001;SDS011;22070;50.922;5.430;2024-01-11T00:59:15;30.17;;;8.87;;
36001;SDS011;22070;50.922;5.430;2024-01-11T01:01:46;24.77;;;9.10;;
36001;SDS011;22070;50.922;5.430;2024-01-11T01:04:13;31.15;;;8.85;;
36001;SDS011;22070;50.922;5.430;2024-01-11T01:06:38;26.20;;;8.30;;
36001;SDS011;22070;50.922;5.430;2024-01-11T01:09:04;29.30;;;8.47;;
36001;SDS011;22070;50.922;5.430;2024-01-11T01:11:30;20.90;;;7.93;;
36001;SDS011;22070;50.922;5.430;2024-01-11T01:13:55;27.80;;;7.83;;
36001;SDS011;22070;50.922;5.430;2024-01-11T01:16:21;16.53;;;6.23;;
36001;SDS011;22070;50.922;5.430;2024-01-11T01:18:47;26.60;;;9.20;;
36001;SDS011;22070;50.922;5.430;2024-01-11T01:21:12;23.90;;;8.73;;
36001;SDS011;22070;50.922;5.430;2024-01-11T01:23:38;28.77;;;7.90;;
36001;SDS011;22070;50.922;5.430;2024-01-11T01:26:04;30.63;;;8.73;;
36001;SDS011;22070;50.922;5.430;2024-01-11T01:28:29;25.17;;;7.90;;
36001;SDS011;22070;50.922;5.430;2024-01-11T01:30:55;27.17;;;8.37;;
36001;SDS011;22070;50.922;5.430;2024-01-11T01:33:21;25.33;;;8.07;;
36001;SDS011;22070;50.922;5.430;2024-01-11T01:35:46;26.37;;;8.60;;
36001;SDS011;22070;50.922;5.430;2024-01-11T01:38:12;27.53;;;8.20;;
36001;SDS011;22070;50.922;5.430;2024-01-11T01:40:38;19.60;;;7.40;;
36001;SDS011;22070;50.922;5.430;2024-01-11T01:43:06;23.97;;;7.67;;
36001;SDS011;22070;50.922;5.430;2024-01-11T01:45:34;33.08;;;9.57;;
36001;SDS011;22070;50.922;5.430;2024-01-11T01:47:59;22.07;;;7.37;;
36001;SDS011;22070;50.922;5.430;2024-01-11T01:50:26;29.38;;;8.27;;
36001;SDS011;22070;50.922;5.430;2024-01-11T01:52:52;30.13;;;8.63;;
36001;SDS011;22070;50.922;5.430;2024-01-11T01:55:18;22.42;;;7.50;;
36001;SDS011;22070;50.922;5.430;2024-01-11T02:00:11;25.33;;;7.57;;
36001;SDS011;22070;50.922;5.430;2024-01-11T02:05:09;23.30;;;6.95;;
36001;SDS011;22070;50.922;5.430;2024-01-11T02:07:35;26.27;;;8.65;;
36001;SDS011;22070;50.922;5.430;2024-01-11T02:10:01;23.30;;;7.37;;
36001;SDS011;22070;50.922;5.430;2024-01-11T02:12:28;25.88;;;7.53;;
36001;SDS011;22070;50.922;5.430;2024-01-11T02:14:54;27.13;;;8.07;;
36001;SDS011;22070;50.922;5.430;2024-01-11T02:17:20;25.60;;;7.50;;
36001;SDS011;22070;50.922;5.430;2024-01-11T02:19:46;21.63;;;7.25;;
36001;SDS011;22070;50.922;5.430;2024-01-11T02:22:17;27.35;;;8.20;;
36001;SDS011;22070;50.922;5.430;2024-01-11T02:24:49;25.15;;;6.88;;
36001;SDS011;22070;50.922;5.430;2024-01-11T02:27:14;23.80;;;9.00;;
36001;SDS011;22070;50.922;5.430;2024-01-11T02:29:40;23.53;;;7.77;;
36001;SDS011;22070;50.922;5.430;2024-01-11T02:32:06;25.87;;;8.30;;
36001;SDS011;22070;50.922;5.430;2024-01-11T02:34:33;21.42;;;8.15;;
36001;SDS011;22070;50.922;5.430;2024-01-11T02:36:59;24.17;;;8.05;;
36001;SDS011;22070;50.922;5.430;2024-01-11T02:39:25;20.83;;;7.77;;
36001;SDS011;22070;50.922;5.430;2024-01-11T02:41:52;21.17;;;7.60;;
36001;SDS011;22070;50.922;5.430;2024-01-11T02:44:22;26.38;;;8.15;;
36001;SDS011;22070;50.922;5.430;2024-01-11T02:46:48;18.73;;;7.77;;
36001;SDS011;22070;50.922;5.430;2024-01-11T02:49:13;25.97;;;8.70;;
36001;SDS011;22070;50.922;5.430;2024-01-11T02:51:39;25.83;;;8.38;;
36001;SDS011;22070;50.922;5.430;2024-01-11T02:54:05;23.53;;;8.23;;
36001;SDS011;22070;50.922;5.430;2024-01-11T02:56:31;26.33;;;7.93;;
36001;SDS011;22070;50.922;5.430;2024-01-11T02:58:57;25.35;;;8.63;;
36001;SDS011;22070;50.922;5.430;2024-01-11T03:01:22;20.13;;;6.50;;
36001;SDS011;22070;50.922;5.430;2024-01-11T03:03:48;25.50;;;8.23;;
36001;SDS011;22070;50.922;5.430;2024-01-11T03:06:14;28.03;;;8.53;;
36001;SDS011;22070;50.922;5.430;2024-01-11T03:08:39;26.10;;;8.30;;
36001;SDS011;22070;50.922;5.430;2024-01-11T03:11:05;24.87;;;7.97;;
36001;SDS011;22070;50.922;5.430;2024-01-11T03:13:31;30.40;;;8.98;;
36001;SDS011;22070;50.922;5.430;2024-01-11T03:15:57;22.57;;;8.10;;
36001;SDS011;22070;50.922;5.430;2024-01-11T03:18:22;26.03;;;7.50;;
36001;SDS011;22070;50.922;5.430;2024-01-11T03:20:48;23.67;;;8.07;;
36001;SDS011;22070;50.922;5.430;2024-01-11T03:23:14;24.97;;;8.20;;
36001;SDS011;22070;50.922;5.430;2024-01-11T03:25:39;19.23;;;6.07;;
36001;SDS011;22070;50.922;5.430;2024-01-11T03:28:05;25.23;;;7.97;;
36001;SDS011;22070;50.922;5.430;2024-01-11T03:30:30;20.17;;;6.90;;
36001;SDS011;22070;50.922;5.430;2024-01-11T03:32:56;30.80;;;8.10;;
36001;SDS011;22070;50.922;5.430;2024-01-11T03:35:22;23.90;;;8.47;;
36001;SDS011;22070;50.922;5.430;2024-01-11T03:37:48;28.57;;;8.67;;
36001;SDS011;22070;50.922;5.430;2024-01-11T03:40:13;27.70;;;7.93;;
36001;SDS011;22070;50.922;5.430;2024-01-11T03:42:39;34.23;;;8.37;;
36001;SDS011;22070;50.922;5.430;2024-01-11T03:45:06;22.25;;;7.38;;
36001;SDS011;22070;50.922;5.430;2024-01-11T03:47:32;20.17;;;7.70;;
36001;SDS011;22070;50.922;5.430;2024-01-11T03:49:58;21.83;;;7.30;;
36001;SDS011;22070;50.922;5.430;2024-01-11T03:52:23;21.33;;;7.33;;
36001;SDS011;22070;50.922;5.430;2024-01-11T03:54:49;25.37;;;7.57;;
36001;SDS011;22070;50.922;5.430;2024-01-11T03:57:15;24.77;;;7.60;;
36001;SDS011;22070;50.922;5.430;2024-01-11T03:59:41;18.92;;;7.47;;
36001;SDS011;22070;50.922;5.430;2024-01-11T04:02:07;26.50;;;8.40;;
36001;SDS011;22070;50.922;5.430;2024-01-11T04:04:33;24.57;;;7.80;;
36001;SDS011;22070;50.922;5.430;2024-01-11T04:06:59;25.98;;;8.35;;
36001;SDS011;22070;50.922;5.430;2024-01-11T04:09:24;26.93;;;8.37;;
36001;SDS011;22070;50.922;5.430;2024-01-11T04:11:50;25.90;;;8.17;;
36001;SDS011;22070;50.922;5.430;2024-01-11T04:14:16;25.23;;;7.67;;
36001;SDS011;22070;50.922;5.430;2024-01-11T04:16:42;26.20;;;7.43;;
36001;SDS011;22070;50.922;5.430;2024-01-11T04:19:08;25.15;;;8.10;;
36001;SDS011;22070;50.922;5.430;2024-01-11T04:21:34;24.00;;;8.20;;
36001;SDS011;22070;50.922;5.430;2024-01-11T04:24:00;21.43;;;6.87;;
36001;SDS011;22070;50.922;5.430;2024-01-11T04:26:26;27.30;;;8.27;;
36001;SDS011;22070;50.922;5.430;2024-01-11T04:28:52;25.60;;;8.10;;
36001;SDS011;22070;50.922;5.430;2024-01-11T04:31:18;21.35;;;7.72;;
36001;SDS011;22070;50.922;5.430;2024-01-11T04:33:44;34.07;;;8.90;;
36001;SDS011;22070;50.922;5.430;2024-01-11T04:36:10;30.35;;;9.02;;
36001;SDS011;22070;50.922;5.430;2024-01-11T04:38:37;28.50;;;8.30;;
36001;SDS011;22070;50.922;5.430;2024-01-11T04:41:10;24.60;;;8.23;;
36001;SDS011;22070;50.922;5.430;2024-01-11T04:43:39;29.45;;;8.77;;
36001;SDS011;22070;50.922;5.430;2024-01-11T04:49:01;29.27;;;8.95;;
36001;SDS011;22070;50.922;5.430;2024-01-11T04:51:26;30.70;;;9.87;;
36001;SDS011;22070;50.922;5.430;2024-01-11T04:53:52;29.27;;;8.70;;
36001;SDS011;22070;50.922;5.430;2024-01-11T04:56:18;31.43;;;8.20;;
36001;SDS011;22070;50.922;5.430;2024-01-11T04:58:44;23.47;;;8.97;;
36001;SDS011;22070;50.922;5.430;2024-01-11T05:01:13;25.98;;;7.60;;
36001;SDS011;22070;50.922;5.430;2024-01-11T05:03:44;27.60;;;8.20;;
36001;SDS011;22070;50.922;5.430;2024-01-11T05:06:17;27.95;;;9.23;;
36001;SDS011;22070;50.922;5.430;2024-01-11T05:08:47;25.50;;;8.13;;
36001;SDS011;22070;50.922;5.430;2024-01-11T05:11:24;23.98;;;8.85;;
36001;SDS011;22070;50.922;5.430;2024-01-11T05:13:50;27.77;;;8.55;;
36001;SDS011;22070;50.922;5.430;2024-01-11T05:18:42;25.93;;;7.47;;
36001;SDS011;22070;50.922;5.430;2024-01-11T05:21:07;28.30;;;8.83;;
36001;SDS011;22070;50.922;5.430;2024-01-11T05:23:35;30.42;;;9.48;;
36001;SDS011;22070;50.922;5.430;2024-01-11T05:26:00;27.63;;;8.87;;
36001;SDS011;22070;50.922;5.430;2024-01-11T05:28:27;26.35;;;8.35;;
36001;SDS011;22070;50.922;5.430;2024-01-11T05:30:53;30.20;;;9.17;;
36001;SDS011;22070;50.922;5.430;2024-01-11T05:33:19;26.73;;;8.93;;
36001;SDS011;22070;50.922;5.430;2024-01-11T05:35:45;31.77;;;8.87;;
36001;SDS011;22070;50.922;5.430;2024-01-11T05:38:10;24.97;;;9.03;;
36001;SDS011;22070;50.922;5.430;2024-01-11T05:40:36;24.40;;;9.10;;
36001;SDS011;22070;50.922;5.430;2024-01-11T05:43:01;26.23;;;8.80;;
36001;SDS011;22070;50.922;5.430;2024-01-11T05:45:27;31.50;;;9.30;;
36001;SDS011;22070;50.922;5.430;2024-01-11T05:47:53;28.67;;;9.90;;
36001;SDS011;22070;50.922;5.430;2024-01-11T05:50:19;27.13;;;9.97;;
36001;SDS011;22070;50.922;5.430;2024-01-11T05:52:44;31.00;;;9.47;;
36001;SDS011;22070;50.922;5.430;2024-01-11T05:55:10;28.97;;;9.77;;
36001;SDS011;22070;50.922;5.430;2024-01-11T05:57:36;27.80;;;9.43;;
36001;SDS011;22070;50.922;5.430;2024-01-11T06:00:02;27.30;;;10.23;;
36001;SDS011;22070;50.922;5.430;2024-01-11T06:04:56;27.98;;;8.27;;
36001;SDS011;22070;50.922;5.430;2024-01-11T06:07:22;30.47;;;9.00;;
36001;SDS011;22070;50.922;5.430;2024-01-11T06:09:48;30.05;;;10.25;;
36001;SDS011;22070;50.922;5.430;2024-01-11T06:12:14;28.43;;;10.00;;
36001;SDS011;22070;50.922;5.430;2024-01-11T06:14:40;31.20;;;10.13;;
36001;SDS011;22070;50.922;5.430;2024-01-11T06:17:06;24.73;;;9.23;;
36001;SDS011;22070;50.922;5.430;2024-01-11T06:19:31;21.40;;;6.60;;
36001;SDS011;22070;50.922;5.430;2024-01-11T06:21:57;34.33;;;9.67;;
36001;SDS011;22070;50.922;5.430;2024-01-11T06:24:23;27.90;;;9.83;;
36001;SDS011;22070;50.922;5.430;2024-01-11T06:26:49;32.43;;;10.17;;
36001;SDS011;22070;50.922;5.430;2024-01-11T06:29:14;27.67;;;9.70;;
36001;SDS011;22070;50.922;5.430;2024-01-11T06:31:40;39.37;;;9.57;;
36001;SDS011;22070;50.922;5.430;2024-01-11T06:34:06;30.97;;;10.40;;
36001;SDS011;22070;50.922;5.430;2024-01-11T06:36:31;28.20;;;9.50;;
36001;SDS011;22070;50.922;5.430;2024-01-11T06:38:57;33.83;;;10.07;;
36001;SDS011;22070;50.922;5.430;2024-01-11T06:41:23;33.40;;;9.40;;
36001;SDS011;22070;50.922;5.430;2024-01-11T06:43:49;29.42;;;8.77;;
36001;SDS011;22070;50.922;5.430;2024-01-11T06:46:19;28.83;;;8.97;;
36001;SDS011;22070;50.922;5.430;2024-01-11T06:48:46;27.17;;;9.18;;
36001;SDS011;22070;50.922;5.430;2024-01-11T06:51:14;28.75;;;9.50;;
36001;SDS011;22070;50.922;5.430;2024-01-11T06:53:40;32.28;;;10.13;;
36001;SDS011;22070;50.922;5.430;2024-01-11T06:56:16;29.42;;;7.93;;
36001;SDS011;22070;50.922;5.430;2024-01-11T06:58:43;38.08;;;9.48;;
36001;SDS011;22070;50.922;5.430;2024-01-11T07:01:09;28.25;;;9.57;;
36001;SDS011;22070;50.922;5.430;2024-01-11T07:03:36;28.45;;;9.10;;
36001;SDS011;22070;50.922;5.430;2024-01-11T07:06:02;31.55;;;9.43;;
36001;SDS011;22070;50.922;5.430;2024-01-11T07:08:28;39.22;;;10.60;;
36001;SDS011;22070;50.922;5.430;2024-01-11T07:10:54;31.90;;;9.77;;
36001;SDS011;22070;50.922;5.430;2024-01-11T07:13:20;33.47;;;10.50;;
36001;SDS011;22070;50.922;5.430;2024-01-11T07:15:46;35.93;;;10.87;;
36001;SDS011;22070;50.922;5.430;2024-01-11T07:18:13;33.55;;;9.73;;
36001;SDS011;22070;50.922;5.430;2024-01-11T07:20:39;30.83;;;9.48;;
36001;SDS011;22070;50.922;5.430;2024-01-11T07:23:05;31.93;;;9.90;;
36001;SDS011;22070;50.922;5.430;2024-01-11T07:25:31;27.87;;;9.47;;
36001;SDS011;22070;50.922;5.430;2024-01-11T07:27:57;29.45;;;9.60;;
36001;SDS011;22070;50.922;5.430;2024-01-11T07:30:23;30.02;;;10.23;;
36001;SDS011;22070;50.922;5.430;2024-01-11T07:32:49;34.77;;;10.53;;
36001;SDS011;22070;50.922;5.430;2024-01-11T07:35:14;31.73;;;10.17;;
36001;SDS011;22070;50.922;5.430;2024-01-11T07:37:40;26.53;;;9.67;;
36001;SDS011;22070;50.922;5.430;2024-01-11T07:40:06;35.47;;;12.00;;
36001;SDS011;22070;50.922;5.430;2024-01-11T07:42:37;29.17;;;9.50;;
36001;SDS011;22070;50.922;5.430;2024-01-11T07:45:04;36.05;;;10.25;;
36001;SDS011;22070;50.922;5.430;2024-01-11T07:47:30;25.95;;;9.80;;
36001;SDS011;22070;50.922;5.430;2024-01-11T07:49:56;28.85;;;9.23;;
36001;SDS011;22070;50.922;5.430;2024-01-11T07:52:22;36.20;;;11.17;;
36001;SDS011;22070;50.922;5.430;2024-01-11T07:54:47;34.53;;;10.40;;
36001;SDS011;22070;50.922;5.430;2024-01-11T07:57:13;29.40;;;9.83;;
36001;SDS011;22070;50.922;5.430;2024-01-11T07:59:39;32.93;;;10.27;;
36001;SDS011;22070;50.922;5.430;2024-01-11T08:02:05;33.03;;;10.63;;
36001;SDS011;22070;50.922;5.430;2024-01-11T08:04:32;40.50;;;12.07;;
36001;SDS011;22070;50.922;5.430;2024-01-11T08:06:58;32.20;;;10.03;;
36001;SDS011;22070;50.922;5.430;2024-01-11T08:09:27;33.65;;;10.73;;
36001;SDS011;22070;50.922;5.430;2024-01-11T08:11:53;34.67;;;10.30;;
36001;SDS011;22070;50.922;5.430;2024-01-11T08:14:19;34.97;;;10.07;;
36001;SDS011;22070;50.922;5.430;2024-01-11T08:16:45;29.02;;;10.35;;
36001;SDS011;22070;50.922;5.430;2024-01-11T08:19:11;39.80;;;11.83;;
36001;SDS011;22070;50.922;5.430;2024-01-11T08:21:39;31.45;;;10.10;;
36001;SDS011;22070;50.922;5.430;2024-01-11T08:24:06;41.35;;;10.82;;
36001;SDS011;22070;50.922;5.430;2024-01-11T08:26:32;29.10;;;9.97;;
36001;SDS011;22070;50.922;5.430;2024-01-11T08:28:57;37.60;;;10.23;;
36001;SDS011;22070;50.922;5.430;2024-01-11T08:31:23;29.43;;;9.27;;
36001;SDS011;22070;50.922;5.430;2024-01-11T08:33:49;39.67;;;11.00;;
36001;SDS011;22070;50.922;5.430;2024-01-11T08:36:15;36.95;;;10.30;;
36001;SDS011;22070;50.922;5.430;2024-01-11T08:38:41;30.20;;;11.00;;
36001;SDS011;22070;50.922;5.430;2024-01-11T08:41:07;35.63;;;11.87;;
36001;SDS011;22070;50.922;5.430;2024-01-11T08:43:32;34.90;;;10.57;;
36001;SDS011;22070;50.922;5.430;2024-01-11T08:45:58;33.57;;;10.67;;
36001;SDS011;22070;50.922;5.430;2024-01-11T08:48:25;32.45;;;9.88;;
36001;SDS011;22070;50.922;5.430;2024-01-11T08:50:50;35.15;;;10.07;;
36001;SDS011;22070;50.922;5.430;2024-01-11T08:53:16;36.33;;;12.20;;
36001;SDS011;22070;50.922;5.430;2024-01-11T08:55:42;35.85;;;12.98;;
36001;SDS011;22070;50.922;5.430;2024-01-11T08:58:09;38.22;;;11.45;;
36001;SDS011;22070;50.922;5.430;2024-01-11T09:00:35;34.55;;;10.55;;
36001;SDS011;22070;50.922;5.430;2024-01-11T09:05:28;35.17;;;10.73;;
36001;SDS011;22070;50.922;5.430;2024-01-11T09:07:53;38.57;;;11.93;;
36001;SDS011;22070;50.922;5.430;2024-01-11T09:10:19;41.20;;;12.20;;
36001;SDS011;22070;50.922;5.430;2024-01-11T09:12:45;32.43;;;10.60;;
36001;SDS011;22070;50.922;5.430;2024-01-11T09:15:11;40.35;;;11.13;;
36001;SDS011;22070;50.922;5.430;2024-01-11T09:17:37;32.70;;;11.13;;
36001;SDS011;22070;50.922;5.430;2024-01-11T09:20:03;39.08;;;12.32;;
36001;SDS011;22070;50.922;5.430;2024-01-11T09:22:30;36.60;;;11.63;;
36001;SDS011;22070;50.922;5.430;2024-01-11T09:24:55;41.73;;;12.50;;
36001;SDS011;22070;50.922;5.430;2024-01-11T09:27:21;26.67;;;8.93;;
36001;SDS011;22070;50.922;5.430;2024-01-11T09:29:47;44.40;;;12.23;;
36001;SDS011;22070;50.922;5.430;2024-01-11T09:32:13;46.37;;;13.77;;
36001;SDS011;22070;50.922;5.430;2024-01-11T09:34:39;30.70;;;12.23;;
36001;SDS011;22070;50.922;5.430;2024-01-11T09:37:04;32.13;;;12.63;;
36001;SDS011;22070;50.922;5.430;2024-01-11T09:39:30;35.17;;;11.13;;
36001;SDS011;22070;50.922;5.430;2024-01-11T09:42:03;35.93;;;11.73;;
36001;SDS011;22070;50.922;5.430;2024-01-11T09:44:32;37.22;;;12.35;;
36001;SDS011;22070;50.922;5.430;2024-01-11T09:46:58;41.67;;;13.80;;
36001;SDS011;22070;50.922;5.430;2024-01-11T09:49:26;33.20;;;12.25;;
36001;SDS011;22070;50.922;5.430;2024-01-11T09:51:55;40.50;;;13.90;;
36001;SDS011;22070;50.922;5.430;2024-01-11T09:54:22;37.80;;;13.45;;
36001;SDS011;22070;50.922;5.430;2024-01-11T09:56:50;38.17;;;11.55;;
36001;SDS011;22070;50.922;5.430;2024-01-11T09:59:19;37.30;;;12.60;;
36001;SDS011;22070;50.922;5.430;2024-01-11T10:01:48;43.20;;;12.65;;
36001;SDS011;22070;50.922;5.430;2024-01-11T10:04:14;46.33;;;13.40;;
36001;SDS011;22070;50.922;5.430;2024-01-11T10:06:41;35.90;;;12.30;;
36001;SDS011;22070;50.922;5.430;2024-01-11T10:09:07;36.05;;;12.48;;
36001;SDS011;22070;50.922;5.430;2024-01-11T10:11:33;40.75;;;12.48;;
36001;SDS011;22070;50.922;5.430;2024-01-11T10:13:59;36.50;;;12.07;;
36001;SDS011;22070;50.922;5.430;2024-01-11T10:16:27;35.35;;;12.32;;
36001;SDS011;22070;50.922;5.430;2024-01-11T10:18:54;45.00;;;13.27;;
36001;SDS011;22070;50.922;5.430;2024-01-11T10:21:20;35.33;;;12.15;;
36001;SDS011;22070;50.922;5.430;2024-01-11T10:23:46;34.00;;;11.77;;
36001;SDS011;22070;50.922;5.430;2024-01-11T10:26:12;45.67;;;13.20;;
36001;SDS011;22070;50.922;5.430;2024-01-11T10:28:42;30.77;;;11.88;;
36001;SDS011;22070;50.922;5.430;2024-01-11T10:31:10;41.40;;;12.63;;
36001;SDS011;22070;50.922;5.430;2024-01-11T10:33:36;40.03;;;12.80;;
36001;SDS011;22070;50.922;5.430;2024-01-11T10:36:03;33.77;;;12.20;;
36001;SDS011;22070;50.922;5.430;2024-01-11T10:38:33;36.13;;;13.10;;
36001;SDS011;22070;50.922;5.430;2024-01-11T10:41:03;32.97;;;12.05;;
36001;SDS011;22070;50.922;5.430;2024-01-11T10:43:31;36.65;;;12.25;;
36001;SDS011;22070;50.922;5.430;2024-01-11T10:48:25;31.27;;;10.75;;
36001;SDS011;22070;50.922;5.430;2024-01-11T10:50:54;44.80;;;11.95;;
36001;SDS011;22070;50.922;5.430;2024-01-11T10:56:10;39.25;;;11.60;;
36001;SDS011;22070;50.922;5.430;2024-01-11T10:58:42;34.35;;;12.38;;
36001;SDS011;22070;50.922;5.430;2024-01-11T11:01:12;31.92;;;11.40;;
36001;SDS011;22070;50.922;5.430;2024-01-11T11:03:39;34.83;;;11.82;;
36001;SDS011;22070;50.922;5.430;2024-01-11T11:06:07;38.42;;;12.93;;
36001;SDS011;22070;50.922;5.430;2024-01-11T11:08:34;37.83;;;12.23;;
36001;SDS011;22070;50.922;5.430;2024-01-11T11:11:02;31.80;;;11.73;;
36001;SDS011;22070;50.922;5.430;2024-01-11T11:13:32;39.70;;;12.40;;
36001;SDS011;22070;50.922;5.430;2024-01-11T11:16:02;33.88;;;12.25;;
36001;SDS011;22070;50.922;5.430;2024-01-11T11:18:31;35.00;;;12.23;;
36001;SDS011;22070;50.922;5.430;2024-01-11T11:21:00;37.28;;;12.48;;
36001;SDS011;22070;50.922;5.430;2024-01-11T11:23:25;43.97;;;13.20;;
36001;SDS011;22070;50.922;5.430;2024-01-11T11:25:51;40.33;;;12.17;;
36001;SDS011;22070;50.922;5.430;2024-01-11T11:28:20;33.67;;;12.13;;
36001;SDS011;22070;50.922;5.430;2024-01-11T11:30:48;36.03;;;11.73;;
36001;SDS011;22070;50.922;5.430;2024-01-11T11:33:19;39.88;;;11.93;;
36001;SDS011;22070;50.922;5.430;2024-01-11T11:35:46;29.73;;;11.57;;
36001;SDS011;22070;50.922;5.430;2024-01-11T11:38:20;37.65;;;12.27;;
36001;SDS011;22070;50.922;5.430;2024-01-11T11:40:51;34.92;;;11.93;;
36001;SDS011;22070;50.922;5.430;2024-01-11T11:43:17;36.05;;;11.80;;
36001;SDS011;22070;50.922;5.430;2024-01-11T11:45:49;33.72;;;12.20;;
36001;SDS011;22070;50.922;5.430;2024-01-11T11:51:06;35.25;;;11.18;;
36001;SDS011;22070;50.922;5.430;2024-01-11T11:53:36;31.10;;;10.73;;
36001;SDS011;22070;50.922;5.430;2024-01-11T11:56:02;30.75;;;11.40;;
36001;SDS011;22070;50.922;5.430;2024-01-11T11:58:29;31.10;;;10.70;;
36001;SDS011;22070;50.922;5.430;2024-01-11T12:00:56;32.95;;;11.23;;
36001;SDS011;22070;50.922;5.430;2024-01-11T12:03:36;35.67;;;11.43;;
36001;SDS011;22070;50.922;5.430;2024-01-11T12:06:07;27.52;;;10.20;;
36001;SDS011;22070;50.922;5.430;2024-01-11T12:08:35;32.70;;;11.65;;
36001;SDS011;22070;50.922;5.430;2024-01-11T12:11:01;25.02;;;9.27;;
36001;SDS011;22070;50.922;5.430;2024-01-11T12:13:27;28.30;;;9.98;;
36001;SDS011;22070;50.922;5.430;2024-01-11T12:15:53;27.90;;;10.53;;
36001;SDS011;22070;50.922;5.430;2024-01-11T12:18:20;28.40;;;10.57;;
36001;SDS011;22070;50.922;5.430;2024-01-11T12:20:46;36.95;;;10.18;;
36001;SDS011;22070;50.922;5.430;2024-01-11T12:23:11;24.33;;;9.00;;
36001;SDS011;22070;50.922;5.430;2024-01-11T12:25:40;27.42;;;9.88;;
36001;SDS011;22070;50.922;5.430;2024-01-11T12:28:06;32.63;;;9.75;;
36001;SDS011;22070;50.922;5.430;2024-01-11T12:30:32;23.10;;;9.43;;
36001;SDS011;22070;50.922;5.430;2024-01-11T12:32:58;31.63;;;9.20;;
36001;SDS011;22070;50.922;5.430;2024-01-11T12:35:28;26.65;;;10.05;;
36001;SDS011;22070;50.922;5.430;2024-01-11T12:40:25;22.88;;;8.55;;
36001;SDS011;22070;50.922;5.430;2024-01-11T12:42:55;32.88;;;9.82;;
36001;SDS011;22070;50.922;5.430;2024-01-11T12:45:23;24.98;;;9.38;;
36001;SDS011;22070;50.922;5.430;2024-01-11T12:47:51;26.50;;;9.60;;
36001;SDS011;22070;50.922;5.430;2024-01-11T12:50:17;31.45;;;10.15;;
36001;SDS011;22070;50.922;5.430;2024-01-11T12:52:43;26.67;;;8.30;;
36001;SDS011;22070;50.922;5.430;2024-01-11T12:55:17;27.00;;;9.10;;
36001;SDS011;22070;50.922;5.430;2024-01-11T12:57:44;23.77;;;9.23;;
36001;SDS011;22070;50.922;5.430;2024-01-11T13:00:11;25.37;;;9.00;;
36001;SDS011;22070;50.922;5.430;2024-01-11T13:02:41;24.10;;;8.85;;
36001;SDS011;22070;50.922;5.430;2024-01-11T13:05:11;26.25;;;9.00;;
36001;SDS011;22070;50.922;5.430;2024-01-11T13:07:36;24.33;;;8.57;;
36001;SDS011;22070;50.922;5.430;2024-01-11T13:10:02;23.93;;;8.83;;
36001;SDS011;22070;50.922;5.430;2024-01-11T13:12:29;25.38;;;9.88;;
36001;SDS011;22070;50.922;5.430;2024-01-11T13:14:55;24.70;;;9.23;;
36001;SDS011;22070;50.922;5.430;2024-01-11T13:17:21;23.33;;;8.90;;
36001;SDS011;22070;50.922;5.430;2024-01-11T13:19:47;24.80;;;8.93;;
36001;SDS011;22070;50.922;5.430;2024-01-11T13:22:12;27.00;;;9.25;;
36001;SDS011;22070;50.922;5.430;2024-01-11T13:24:38;33.73;;;10.03;;
36001;SDS011;22070;50.922;5.430;2024-01-11T13:27:03;25.35;;;9.55;;
36001;SDS011;22070;50.922;5.430;2024-01-11T13:29:29;26.53;;;9.70;;
36001;SDS011;22070;50.922;5.430;2024-01-11T13:31:55;23.87;;;8.70;;
36001;SDS011;22070;50.922;5.430;2024-01-11T13:34:21;24.92;;;8.65;;
36001;SDS011;22070;50.922;5.430;2024-01-11T13:36:46;20.80;;;8.93;;
36001;SDS011;22070;50.922;5.430;2024-01-11T13:39:12;33.27;;;8.80;;
36001;SDS011;22070;50.922;5.430;2024-01-11T13:41:38;20.73;;;8.82;;
36001;SDS011;22070;50.922;5.430;2024-01-11T13:44:05;23.75;;;9.00;;
36001;SDS011;22070;50.922;5.430;2024-01-11T13:46:32;23.17;;;9.17;;
36001;SDS011;22070;50.922;5.430;2024-01-11T13:48:58;21.63;;;8.82;;
36001;SDS011;22070;50.922;5.430;2024-01-11T13:51:23;24.13;;;8.73;;
36001;SDS011;22070;50.922;5.430;2024-01-11T13:53:49;24.15;;;7.88;;
36001;SDS011;22070;50.922;5.430;2024-01-11T13:56:15;24.03;;;8.30;;
36001;SDS011;22070;50.922;5.430;2024-01-11T13:58:41;26.17;;;8.60;;
36001;SDS011;22070;50.922;5.430;2024-01-11T14:01:06;23.60;;;7.57;;
36001;SDS011;22070;50.922;5.430;2024-01-11T14:03:32;30.30;;;9.33;;
36001;SDS011;22070;50.922;5.430;2024-01-11T14:05:58;21.27;;;8.97;;
36001;SDS011;22070;50.922;5.430;2024-01-11T14:08:25;23.70;;;8.60;;
36001;SDS011;22070;50.922;5.430;2024-01-11T14:10:51;21.23;;;8.27;;
36001;SDS011;22070;50.922;5.430;2024-01-11T14:13:17;24.57;;;10.20;;
36001;SDS011;22070;50.922;5.430;2024-01-11T14:15:43;20.70;;;8.63;;
36001;SDS011;22070;50.922;5.430;2024-01-11T14:18:09;21.05;;;8.10;;
36001;SDS011;22070;50.922;5.430;2024-01-11T14:20:35;25.93;;;9.30;;
36001;SDS011;22070;50.922;5.430;2024-01-11T14:23:01;26.47;;;9.00;;
36001;SDS011;22070;50.922;5.430;2024-01-11T14:25:27;26.27;;;9.33;;
36001;SDS011;22070;50.922;5.430;2024-01-11T14:27:54;27.23;;;8.65;;
36001;SDS011;22070;50.922;5.430;2024-01-11T14:30:21;26.70;;;8.85;;
36001;SDS011;22070;50.922;5.430;2024-01-11T14:32:47;18.60;;;8.35;;
36001;SDS011;22070;50.922;5.430;2024-01-11T14:35:13;24.75;;;7.60;;
36001;SDS011;22070;50.922;5.430;2024-01-11T14:37:39;23.67;;;8.67;;
36001;SDS011;22070;50.922;5.430;2024-01-11T14:40:05;19.77;;;8.33;;
36001;SDS011;22070;50.922;5.430;2024-01-11T14:42:32;24.25;;;8.18;;
36001;SDS011;22070;50.922;5.430;2024-01-11T14:44:58;21.05;;;8.15;;
36001;SDS011;22070;50.922;5.430;2024-01-11T14:47:24;26.13;;;8.93;;
36001;SDS011;22070;50.922;5.430;2024-01-11T14:49:50;16.63;;;7.50;;
36001;SDS011;22070;50.922;5.430;2024-01-11T14:52:16;23.53;;;7.53;;